createdAt,value
2016-11-26T13:09:41.910Z,264
2016-11-26T13:10:42.218Z,264
2016-11-26T13:11:42.205Z,264
2016-11-26T13:12:42.207Z,268
2016-11-26T13:13:42.211Z,268
2016-11-26T13:14:41.910Z,264
2016-11-26T13:15:42.198Z,264
2016-11-26T13:16:42.500Z,260
2016-11-26T13:17:41.890Z,264
2016-11-26T13:18:42.181Z,268
2016-11-26T13:19:42.180Z,280
2016-11-26T13:20:41.874Z,288
2016-11-26T13:21:41.898Z,300
2016-11-26T13:22:42.181Z,312
2016-11-26T13:23:41.875Z,328
2016-11-26T13:24:42.160Z,344
2016-11-26T13:25:42.162Z,352
2016-11-26T13:26:41.855Z,356
2016-11-26T13:27:42.162Z,352
2016-11-26T13:28:41.855Z,348
2016-11-26T13:29:42.146Z,344
2016-11-26T13:30:41.860Z,356
2016-11-26T13:31:42.140Z,384
2016-11-26T13:32:41.862Z,408
2016-11-26T13:33:42.446Z,444
2016-11-26T13:34:41.837Z,492
2016-11-26T13:35:42.140Z,540
2016-11-26T13:36:42.160Z,576
2016-11-26T13:37:41.986Z,596
2016-11-26T13:38:41.817Z,596
2016-11-26T13:39:41.918Z,588
2016-11-26T13:40:43.123Z,564
2016-11-26T13:41:42.428Z,540
2016-11-26T13:42:42.114Z,532
2016-11-26T13:43:41.796Z,548
2016-11-26T13:44:42.132Z,560
2016-11-26T13:45:41.807Z,564
2016-11-26T13:46:41.790Z,552
2016-11-26T13:47:42.092Z,532
2016-11-26T13:48:41.792Z,496
2016-11-26T13:49:41.777Z,468
2016-11-26T13:50:41.791Z,472
2016-11-26T13:51:42.090Z,480
2016-11-26T13:52:41.767Z,492
2016-11-26T13:53:41.764Z,492
2016-11-26T13:54:41.826Z,492
2016-11-26T13:55:41.761Z,488
2016-11-26T13:56:42.064Z,488
2016-11-26T13:57:41.757Z,488
2016-11-26T13:58:41.754Z,492
2016-11-26T13:59:42.073Z,488
2016-11-26T14:00:42.072Z,476
2016-11-26T14:01:41.742Z,472
2016-11-26T14:02:41.738Z,472
2016-11-26T14:03:42.364Z,472
2016-11-26T14:04:41.740Z,472
2016-11-26T14:05:41.740Z,468
2016-11-26T14:06:42.037Z,460
2016-11-26T14:07:41.723Z,452
2016-11-26T14:08:42.038Z,444
2016-11-26T14:09:42.451Z,428
2016-11-26T14:10:41.719Z,416
2016-11-26T14:11:41.724Z,408
2016-11-26T14:12:41.720Z,404
2016-11-26T14:13:42.024Z,392
2016-11-26T14:14:41.720Z,380
2016-11-26T14:15:42.320Z,364
2016-11-26T14:16:42.002Z,348
2016-11-26T14:17:42.012Z,328
2016-11-26T14:18:41.706Z,312
2016-11-26T14:19:41.689Z,296
2016-11-26T14:20:42.306Z,288
2016-11-26T14:21:41.686Z,288
2016-11-26T14:22:41.998Z,288
2016-11-26T14:23:41.992Z,292
2016-11-26T14:24:41.869Z,296
2016-11-26T14:25:41.987Z,296
2016-11-26T14:26:41.982Z,292
2016-11-26T14:27:42.277Z,288
2016-11-26T14:28:41.977Z,284
2016-11-26T14:29:41.684Z,276
2016-11-26T14:30:41.666Z,276
2016-11-26T14:31:41.662Z,272
2016-11-26T14:32:41.671Z,272
2016-11-26T14:33:41.657Z,264
2016-11-26T14:34:41.641Z,256
2016-11-26T14:35:41.950Z,248
2016-11-26T14:36:41.630Z,240
2016-11-26T14:37:41.937Z,240
2016-11-26T14:38:41.934Z,236
2016-11-26T14:39:42.077Z,232
2016-11-26T14:40:41.923Z,224
2016-11-26T14:41:41.615Z,220
2016-11-26T14:42:41.612Z,212
2016-11-26T14:43:41.614Z,204
2016-11-26T14:44:41.981Z,196
2016-11-26T14:45:41.939Z,176
2016-11-26T14:46:41.602Z,164
2016-11-26T14:47:41.615Z,156
2016-11-26T14:48:41.589Z,156
2016-11-26T14:49:41.923Z,156
2016-11-26T14:50:41.900Z,156
2016-11-26T14:51:41.581Z,156
2016-11-26T14:52:41.616Z,156
2016-11-26T14:53:41.621Z,144
2016-11-26T14:54:42.194Z,132
2016-11-26T14:55:41.577Z,116
2016-11-26T14:56:42.230Z,108
2016-11-26T14:57:42.194Z,104
2016-11-26T14:58:41.578Z,96
2016-11-26T14:59:41.553Z,92
2016-11-26T15:00:41.551Z,92
2016-11-26T15:01:41.553Z,88
2016-11-26T15:02:41.579Z,92
2016-11-26T15:03:41.861Z,84
2016-11-26T15:04:41.535Z,84
2016-11-26T15:05:41.844Z,80
2016-11-26T15:06:41.531Z,80
2016-11-26T15:07:42.143Z,76
2016-11-26T15:08:41.868Z,76
2016-11-26T15:09:42.398Z,72
2016-11-26T15:10:41.521Z,72
2016-11-26T15:11:41.822Z,68
2016-11-26T15:12:41.521Z,68
2016-11-26T15:13:41.525Z,64
2016-11-26T15:14:41.502Z,56
2016-11-26T15:15:41.806Z,56
2016-11-26T15:16:41.500Z,52
2016-11-26T15:17:42.116Z,48
2016-11-26T15:18:41.485Z,48
2016-11-26T15:19:41.802Z,48
2016-11-26T15:20:41.808Z,44
2016-11-26T15:21:41.495Z,44
2016-11-26T15:22:41.476Z,36
2016-11-26T15:23:41.785Z,36
2016-11-26T15:24:41.558Z,36
2016-11-26T15:25:41.527Z,32
2016-11-26T15:26:41.478Z,32
2016-11-26T15:27:41.468Z,32
2016-11-26T15:29:07.887Z,24
2016-11-26T15:29:41.773Z,24
2016-11-26T15:30:41.761Z,24
2016-11-26T15:31:41.767Z,24
2016-11-26T15:32:41.437Z,20
2016-11-26T15:33:41.447Z,20
2016-11-26T15:34:41.434Z,16
2016-11-26T15:35:41.436Z,16
2016-11-26T15:36:41.741Z,16
2016-11-26T15:37:41.727Z,12
2016-11-26T15:38:41.421Z,12
2016-11-26T15:39:41.427Z,8
2016-11-26T15:40:41.423Z,8
2016-11-26T15:41:42.032Z,8
2016-11-26T15:42:41.399Z,8
2016-11-26T15:43:41.395Z,8
2016-11-26T15:44:41.703Z,4
2016-11-26T15:45:41.708Z,4
2016-11-26T15:46:41.694Z,4
2016-11-26T15:47:41.390Z,4
2016-11-26T15:48:41.683Z,4
2016-11-26T15:49:41.682Z,4
2016-11-26T15:50:41.369Z,0
2016-11-26T15:51:41.989Z,0
2016-11-26T15:52:41.989Z,4
2016-11-26T15:53:41.354Z,4
2016-11-26T15:54:41.662Z,4
2016-11-26T15:55:41.655Z,4
2016-11-26T15:56:41.377Z,0
2016-11-26T15:57:41.344Z,0
2016-11-26T15:58:41.652Z,0
2016-11-26T15:59:41.334Z,0
2016-11-26T16:00:41.346Z,0
2016-11-26T16:01:41.957Z,0
2016-11-26T16:02:41.322Z,0
2016-11-26T16:03:41.621Z,0
2016-11-26T16:04:41.337Z,0
2016-11-26T16:05:41.619Z,0
2016-11-26T16:06:41.617Z,0
2016-11-26T16:07:41.612Z,0
2016-11-26T16:08:41.289Z,0
2016-11-26T16:09:41.616Z,0
2016-11-26T16:10:41.597Z,0
2016-11-26T16:11:41.307Z,0
2016-11-26T16:12:41.913Z,0
2016-11-26T16:13:41.279Z,0
2016-11-26T16:14:41.594Z,0
2016-11-26T16:15:41.279Z,0
2016-11-26T16:16:41.574Z,0
2016-11-26T16:17:41.573Z,0
2016-11-26T16:18:41.262Z,0
2016-11-26T16:19:41.260Z,0
2016-11-26T16:20:41.261Z,0
2016-11-26T16:21:41.243Z,0
2016-11-26T16:22:41.238Z,0
2016-11-26T16:23:41.238Z,0
2016-11-26T16:24:41.569Z,0
2016-11-26T16:25:41.231Z,0
2016-11-26T16:26:41.226Z,0
2016-11-26T16:27:41.533Z,0
2016-11-26T16:28:41.906Z,0
2016-11-26T16:29:41.524Z,0
2016-11-26T16:30:41.222Z,0
2016-11-26T16:31:41.224Z,0
2016-11-26T16:32:41.223Z,0
2016-11-26T16:33:41.212Z,0
2016-11-26T16:34:41.212Z,0
2016-11-26T16:35:41.517Z,0
2016-11-26T16:36:41.189Z,0
2016-11-26T16:37:41.184Z,0
2016-11-26T16:38:41.687Z,0
2016-11-26T16:39:41.496Z,0
2016-11-26T16:40:41.169Z,0
2016-11-26T16:41:41.172Z,0
2016-11-26T16:42:41.168Z,0
2016-11-26T16:43:41.495Z,0
2016-11-26T16:44:41.482Z,0
2016-11-26T16:45:41.167Z,0
2016-11-26T16:46:41.170Z,0
2016-11-26T16:47:41.166Z,0
2016-11-26T16:48:41.772Z,0
2016-11-26T16:49:41.141Z,0
2016-11-26T16:50:41.450Z,0
2016-11-26T16:51:41.133Z,0
2016-11-26T16:52:42.071Z,0
2016-11-26T16:53:41.124Z,0
2016-11-26T16:54:41.459Z,0
2016-11-26T16:55:41.136Z,0
2016-11-26T16:56:41.117Z,0
2016-11-26T16:57:41.427Z,0
2016-11-26T16:58:41.422Z,0
2016-11-26T16:59:41.108Z,0
2016-11-26T17:00:41.417Z,0
2016-11-26T17:01:41.103Z,0
2016-11-26T17:02:41.100Z,0
2016-11-26T17:03:41.105Z,0
2016-11-26T17:04:41.098Z,0
2016-11-26T17:05:41.392Z,0
2016-11-26T17:06:41.100Z,0
2016-11-26T17:07:41.077Z,0
2016-11-26T17:08:41.376Z,0
2016-11-26T17:09:41.386Z,0
2016-11-26T17:10:41.386Z,0
2016-11-26T17:11:41.059Z,0
2016-11-26T17:12:41.372Z,0
2016-11-26T17:13:41.378Z,0
2016-11-26T17:14:41.051Z,0
2016-11-26T17:15:41.053Z,0
2016-11-26T17:16:41.347Z,0
2016-11-26T17:17:41.049Z,0
2016-11-26T17:18:41.046Z,0
2016-11-26T17:19:41.031Z,0
2016-11-26T17:20:41.048Z,0
2016-11-26T17:21:41.035Z,0
2016-11-26T17:22:41.021Z,0
2016-11-26T17:23:41.014Z,0
2016-11-26T17:24:41.333Z,0
2016-11-26T17:25:41.318Z,0
2016-11-26T17:26:41.006Z,0
2016-11-26T17:27:41.310Z,0
2016-11-26T17:28:40.997Z,0
2016-11-26T17:29:40.991Z,0
2016-11-26T17:30:41.298Z,0
2016-11-26T17:31:40.984Z,0
2016-11-26T17:32:40.993Z,0
2016-11-26T17:33:40.982Z,0
2016-11-26T17:34:41.003Z,0
2016-11-26T17:35:41.308Z,0
2016-11-26T17:36:41.281Z,0
2016-11-26T17:37:41.270Z,0
2016-11-26T17:38:41.276Z,0
2016-11-26T17:39:40.960Z,0
2016-11-26T17:40:41.003Z,0
2016-11-26T17:41:40.961Z,0
2016-11-26T17:42:40.948Z,0
2016-11-26T17:43:40.943Z,0
2016-11-26T17:44:41.246Z,0
2016-11-26T17:45:40.935Z,0
2016-11-26T17:46:40.930Z,0
2016-11-26T17:47:40.930Z,0
2016-11-26T17:48:40.922Z,0
2016-11-26T17:49:41.015Z,0
2016-11-26T17:50:41.230Z,0
2016-11-26T17:51:41.224Z,0
2016-11-26T17:52:41.219Z,0
2016-11-26T17:53:40.904Z,0
2016-11-26T17:54:41.214Z,0
2016-11-26T17:55:41.213Z,0
2016-11-26T17:56:40.890Z,0
2016-11-26T17:57:40.901Z,0
2016-11-26T17:58:40.899Z,0
2016-11-26T17:59:41.190Z,0
2016-11-26T18:00:41.192Z,0
2016-11-26T18:01:41.497Z,0
2016-11-26T18:02:40.869Z,0
2016-11-26T18:03:40.873Z,0
2016-11-26T18:04:40.881Z,0
2016-11-26T18:05:40.865Z,0
2016-11-26T18:06:41.165Z,0
2016-11-26T18:07:41.161Z,0
2016-11-26T18:08:41.165Z,0
2016-11-26T18:09:41.155Z,0
2016-11-26T18:10:40.847Z,0
2016-11-26T18:11:40.852Z,0
2016-11-26T18:12:41.153Z,0
2016-11-26T18:13:40.837Z,0
2016-11-26T18:14:41.139Z,0
2016-11-26T18:15:41.142Z,0
2016-11-26T18:16:40.825Z,0
2016-11-26T18:17:40.842Z,0
2016-11-26T18:18:40.818Z,0
2016-11-26T18:19:40.824Z,0
2016-11-26T18:20:41.125Z,0
2016-11-26T18:21:40.806Z,0
2016-11-26T18:22:40.795Z,0
2016-11-26T18:23:40.796Z,0
2016-11-26T18:24:41.104Z,0
2016-11-26T18:25:41.458Z,0
2016-11-26T18:26:41.101Z,0
2016-11-26T18:27:40.798Z,0
2016-11-26T18:28:40.778Z,0
2016-11-26T18:29:40.776Z,0
2016-11-26T18:30:40.826Z,0
2016-11-26T18:31:41.091Z,0
2016-11-26T18:32:41.074Z,0
2016-11-26T18:33:40.763Z,0
2016-11-26T18:34:40.771Z,0
2016-11-26T18:35:40.826Z,0
2016-11-26T18:36:40.740Z,0
2016-11-26T18:37:41.070Z,0
2016-11-26T18:38:40.731Z,0
2016-11-26T18:39:41.048Z,0
2016-11-26T18:40:41.138Z,0
2016-11-26T18:41:40.728Z,0
2016-11-26T18:42:40.721Z,0
2016-11-26T18:43:41.330Z,0
2016-11-26T18:44:41.025Z,0
2016-11-26T18:45:41.022Z,0
2016-11-26T18:46:40.706Z,0
2016-11-26T18:47:41.005Z,0
2016-11-26T18:48:40.712Z,0
2016-11-26T18:49:41.000Z,0
2016-11-26T18:50:40.996Z,0
2016-11-26T18:51:41.002Z,0
2016-11-26T18:52:41.012Z,0
2016-11-26T18:53:40.680Z,0
2016-11-26T18:54:40.675Z,0
